createdAt,value
2023-02-26T00:01:41.138Z,0.35
2023-02-26T00:04:43.018Z,0.37
2023-02-26T00:07:44.841Z,0.38
2023-02-26T00:10:46.375Z,0.40
2023-02-26T00:13:49.180Z,0.41
2023-02-26T00:17:17.956Z,0.41
2023-02-26T00:20:19.898Z,0.44
2023-02-26T00:23:22.173Z,0.44
2023-02-26T00:26:26.419Z,0.43
2023-02-26T00:29:28.628Z,0.42
2023-02-26T00:32:32.182Z,0.41
2023-02-26T00:35:34.358Z,0.41
2023-02-26T00:38:36.583Z,0.42
2023-02-26T00:41:38.496Z,0.42
2023-02-26T00:44:41.140Z,0.42
2023-02-26T00:48:20.825Z,0.42
2023-02-26T00:51:32.106Z,0.42
2023-02-26T00:54:33.767Z,0.43
2023-02-26T00:57:35.510Z,0.42
2023-02-26T01:00:37.109Z,0.42
2023-02-26T01:03:39.096Z,0.41
2023-02-26T01:06:45.078Z,0.41
2023-02-26T01:09:47.106Z,0.40
2023-02-26T01:12:49.454Z,0.39
2023-02-26T01:15:57.151Z,0.39
2023-02-26T01:19:18.593Z,0.38
2023-02-26T01:22:24.512Z,0.38
2023-02-26T01:25:51.986Z,0.37
2023-02-26T01:28:58.737Z,0.35
2023-02-26T01:32:08.200Z,0.34
2023-02-26T01:35:23.899Z,0.33
2023-02-26T01:39:00.058Z,0.33
2023-02-26T01:42:23.832Z,0.32
2023-02-26T01:45:37.103Z,0.30
2023-02-26T01:48:48.289Z,0.28
2023-02-26T01:52:01.526Z,0.26
2023-02-26T01:55:05.541Z,0.24
2023-02-26T01:58:07.105Z,0.22
2023-02-26T02:01:08.834Z,0.20
2023-02-26T02:04:12.037Z,0.19
2023-02-26T02:07:14.127Z,0.19
2023-02-26T02:10:16.335Z,0.19
2023-02-26T02:13:36.581Z,0.20
2023-02-26T02:16:53.636Z,0.20
2023-02-26T02:20:10.713Z,0.19
2023-02-26T02:23:15.684Z,0.19
2023-02-26T02:26:39.359Z,0.17
2023-02-26T02:30:03.534Z,0.16
2023-02-26T02:33:18.305Z,0.15
2023-02-26T02:36:39.024Z,0.12
2023-02-26T02:39:45.069Z,0.11
2023-02-26T02:43:02.556Z,0.11
2023-02-26T02:46:07.980Z,0.11
2023-02-26T02:50:05.228Z,0.10
2023-02-26T02:53:21.432Z,0.11
2023-02-26T02:56:30.433Z,0.11
2023-02-26T02:59:42.779Z,0.10
2023-02-26T03:03:01.306Z,0.09
2023-02-26T03:06:03.720Z,0.07
2023-02-26T03:09:06.372Z,0.04
2023-02-26T03:12:08.087Z,0.02
2023-02-26T03:15:10.255Z,-0.02
2023-02-26T03:18:35.071Z,-0.06
2023-02-26T03:21:49.663Z,-0.11
2023-02-26T03:24:52.158Z,-0.16
2023-02-26T03:28:23.779Z,-0.20
2023-02-26T03:31:32.233Z,-0.25
2023-02-26T03:34:57.741Z,-0.28
2023-02-26T03:38:03.358Z,-0.30
2023-02-26T03:41:13.192Z,-0.32
2023-02-26T03:44:34.740Z,-0.34
2023-02-26T03:47:36.733Z,-0.35
2023-02-26T03:50:44.664Z,-0.37
2023-02-26T03:53:54.327Z,-0.38
2023-02-26T03:56:56.115Z,-0.38
2023-02-26T03:59:58.178Z,-0.39
2023-02-26T04:03:08.870Z,-0.41
2023-02-26T04:06:11.981Z,-0.42
2023-02-26T04:09:16.084Z,-0.44
2023-02-26T04:12:22.717Z,-0.45
2023-02-26T04:15:24.374Z,-0.46
2023-02-26T04:18:26.152Z,-0.46
2023-02-26T04:21:27.952Z,-0.47
2023-02-26T04:24:29.624Z,-0.47
2023-02-26T04:27:31.132Z,-0.48
2023-02-26T04:30:32.967Z,-0.49
2023-02-26T04:33:34.562Z,-0.51
2023-02-26T04:36:36.140Z,-0.56
2023-02-26T04:39:37.675Z,-0.75
2023-02-26T04:42:39.423Z,-0.90
2023-02-26T04:45:41.191Z,-0.97
2023-02-26T04:48:42.873Z,-1.04
2023-02-26T04:51:44.539Z,-1.10
2023-02-26T04:54:46.399Z,-1.15
2023-02-26T04:57:47.965Z,-1.18
2023-02-26T05:00:51.464Z,-1.17
2023-02-26T05:03:53.144Z,-1.14
2023-02-26T05:06:54.741Z,-1.13
2023-02-26T05:09:56.341Z,-1.12
2023-02-26T05:12:58.532Z,-1.13
2023-02-26T05:16:00.221Z,-1.13
2023-02-26T05:19:01.871Z,-1.08
2023-02-26T05:22:03.481Z,-1.07
2023-02-26T05:25:06.413Z,-1.07
2023-02-26T05:28:08.034Z,-1.08
2023-02-26T05:31:09.798Z,-1.10
2023-02-26T05:34:11.537Z,-1.07
2023-02-26T05:37:13.248Z,-0.99
2023-02-26T05:40:14.792Z,-0.95
2023-02-26T05:43:16.459Z,-0.91
2023-02-26T05:46:19.129Z,-0.87
2023-02-26T05:49:24.127Z,-0.84
2023-02-26T05:55:31.818Z,-0.75
2023-02-26T05:58:33.489Z,-0.76
2023-02-26T06:01:35.915Z,-0.75
2023-02-26T06:04:37.503Z,-0.74
2023-02-26T06:07:39.221Z,-0.73
2023-02-26T06:10:40.942Z,-0.73
2023-02-26T06:13:42.630Z,-0.72
2023-02-26T06:16:44.409Z,-0.72
2023-02-26T06:19:46.027Z,-0.73
2023-02-26T06:22:47.633Z,-0.72
2023-02-26T06:25:51.305Z,-0.71
2023-02-26T06:28:52.997Z,-0.71
2023-02-26T06:31:54.627Z,-0.70
2023-02-26T06:34:56.267Z,-0.70
2023-02-26T06:37:58.135Z,-0.70
2023-02-26T06:40:59.991Z,-0.71
2023-02-26T06:44:01.559Z,-0.71
2023-02-26T06:47:03.218Z,-0.70
2023-02-26T06:50:05.739Z,-0.69
2023-02-26T06:53:07.420Z,-0.68
2023-02-26T06:56:09.026Z,-0.66
2023-02-26T06:59:10.983Z,-0.64
2023-02-26T07:02:17.711Z,-0.61
2023-02-26T07:05:19.810Z,-0.58
2023-02-26T07:08:21.394Z,-0.56
2023-02-26T07:11:23.112Z,-0.52
2023-02-26T07:14:24.735Z,-0.50
2023-02-26T07:17:26.522Z,-0.48
2023-02-26T07:20:28.588Z,-0.46
2023-02-26T07:23:30.504Z,-0.41
2023-02-26T07:26:32.843Z,-0.37
2023-02-26T07:29:34.469Z,-0.34
2023-02-26T07:32:36.225Z,-0.28
2023-02-26T07:35:38.553Z,-0.20
2023-02-26T07:38:40.218Z,-0.14
2023-02-26T07:41:41.962Z,-0.06
2023-02-26T07:44:43.690Z,0.09
2023-02-26T07:47:45.218Z,0.24
2023-02-26T07:50:47.483Z,0.35
2023-02-26T07:53:49.067Z,0.42
2023-02-26T07:56:51.473Z,0.44
2023-02-26T07:59:52.994Z,0.49
2023-02-26T08:02:54.597Z,0.56
2023-02-26T08:05:56.200Z,0.61
2023-02-26T08:08:57.790Z,0.68
2023-02-26T08:11:59.335Z,0.70
2023-02-26T08:15:00.910Z,0.70
2023-02-26T08:18:02.453Z,0.65
2023-02-26T08:21:04.470Z,0.54
2023-02-26T08:24:07.212Z,0.38
2023-02-26T08:27:08.839Z,0.26
2023-02-26T08:30:11.169Z,0.14
2023-02-26T08:33:12.743Z,-0.04
2023-02-26T08:36:14.388Z,-0.21
2023-02-26T08:39:16.168Z,-0.33
2023-02-26T08:42:17.621Z,-0.35
2023-02-26T08:45:19.146Z,-0.41
2023-02-26T08:48:20.989Z,-0.50
2023-02-26T08:51:22.712Z,-0.57
2023-02-26T08:54:24.658Z,-0.61
2023-02-26T08:57:26.169Z,-0.62
2023-02-26T09:00:28.041Z,-0.59
2023-02-26T09:03:29.774Z,-0.55
2023-02-26T09:06:31.675Z,-0.49
2023-02-26T09:09:33.323Z,-0.43
2023-02-26T09:12:35.166Z,-0.38
2023-02-26T09:15:36.665Z,-0.32
2023-02-26T09:18:38.270Z,-0.28
2023-02-26T09:21:39.850Z,-0.24
2023-02-26T09:24:41.697Z,-0.23
2023-02-26T09:27:43.322Z,-0.15
2023-02-26T09:30:44.897Z,-0.08
2023-02-26T09:33:46.560Z,-0.01
2023-02-26T09:36:48.350Z,0.08
2023-02-26T09:39:49.892Z,0.18
2023-02-26T09:43:39.974Z,0.32
2023-02-26T09:46:51.884Z,0.46
2023-02-26T09:50:11.712Z,0.58
2023-02-26T09:53:28.512Z,0.75
2023-02-26T09:56:34.179Z,0.95
2023-02-26T09:59:35.781Z,1.13
2023-02-26T10:02:51.628Z,1.38
2023-02-26T10:05:59.489Z,1.68
2023-02-26T10:09:20.648Z,1.76
2023-02-26T10:12:27.690Z,1.86
2023-02-26T10:15:37.564Z,1.98
2023-02-26T10:18:51.994Z,2.20
2023-02-26T10:22:24.259Z,2.41
2023-02-26T10:25:31.509Z,2.49
2023-02-26T10:29:04.944Z,2.39
2023-02-26T10:32:25.241Z,2.26
2023-02-26T10:35:28.386Z,2.22
2023-02-26T10:38:31.528Z,2.24
2023-02-26T10:41:36.758Z,2.30
2023-02-26T10:44:56.625Z,2.49
2023-02-26T10:48:10.139Z,2.69
2023-02-26T10:51:38.670Z,2.55
2023-02-26T10:55:18.969Z,2.04
2023-02-26T10:58:24.164Z,1.66
2023-02-26T11:01:27.780Z,1.44
2023-02-26T11:04:29.748Z,1.31
2023-02-26T11:07:32.489Z,1.16
2023-02-26T11:10:55.467Z,1.05
2023-02-26T11:13:57.309Z,1.04
2023-02-26T11:17:02.232Z,1.05
2023-02-26T11:20:14.439Z,1.08
2023-02-26T11:23:21.178Z,1.12
2023-02-26T11:26:27.325Z,1.24
2023-02-26T11:29:35.917Z,1.42
2023-02-26T11:32:38.189Z,2.23
2023-02-26T11:35:39.871Z,3.39
2023-02-26T11:38:45.080Z,4.57
2023-02-26T11:41:48.285Z,5.33
2023-02-26T11:44:51.237Z,5.22
2023-02-26T11:48:02.131Z,5.26
2023-02-26T11:51:05.167Z,4.86
2023-02-26T11:54:20.645Z,4.39
2023-02-26T11:57:26.991Z,3.88
2023-02-26T12:00:36.598Z,3.62
2023-02-26T12:03:41.093Z,3.43
2023-02-26T12:06:50.788Z,3.25
2023-02-26T12:09:52.686Z,3.01
2023-02-26T12:13:08.482Z,2.76
2023-02-26T12:16:27.207Z,2.59
2023-02-26T12:19:42.679Z,2.46
2023-02-26T12:22:49.112Z,2.38
2023-02-26T12:26:03.133Z,2.37
2023-02-26T12:29:18.372Z,2.31
2023-02-26T12:33:18.912Z,2.13
2023-02-26T12:36:28.255Z,1.96
2023-02-26T12:40:12.221Z,1.81
2023-02-26T12:43:35.492Z,1.54
2023-02-26T12:46:58.969Z,1.35
2023-02-26T12:50:19.664Z,1.23
2023-02-26T12:53:33.283Z,1.20
2023-02-26T12:57:06.126Z,1.17
2023-02-26T13:00:14.495Z,1.15
2023-02-26T13:03:54.019Z,1.02
2023-02-26T13:07:07.931Z,0.85
2023-02-26T13:10:19.464Z,0.84
2023-02-26T13:13:39.027Z,0.87
2023-02-26T13:17:01.519Z,0.88
2023-02-26T13:20:11.992Z,0.85
2023-02-26T13:23:17.950Z,0.79
2023-02-26T13:26:21.201Z,0.72
2023-02-26T13:29:30.541Z,0.66
2023-02-26T13:32:34.201Z,0.60
2023-02-26T13:35:40.481Z,0.51
2023-02-26T13:39:00.983Z,0.46
2023-02-26T13:42:22.439Z,0.39
2023-02-26T13:45:34.910Z,0.35
2023-02-26T13:49:14.035Z,0.32
2023-02-26T13:52:30.559Z,0.28
2023-02-26T13:55:46.906Z,0.20
2023-02-26T13:58:54.832Z,0.12
2023-02-26T14:02:02.643Z,0.05
2023-02-26T14:05:11.197Z,-0.04
2023-02-26T14:08:27.376Z,-0.08
2023-02-26T14:11:53.827Z,-0.11
2023-02-26T14:14:58.665Z,-0.15
2023-02-26T14:18:03.893Z,-0.21
2023-02-26T14:21:28.027Z,-0.27
2023-02-26T14:24:36.491Z,-0.33
2023-02-26T14:27:41.764Z,-0.34
2023-02-26T14:30:50.158Z,-0.36
2023-02-26T14:34:13.682Z,-0.37
2023-02-26T14:37:19.923Z,-0.26
2023-02-26T14:40:22.313Z,-0.28
2023-02-26T14:43:50.922Z,-0.33
2023-02-26T14:46:53.410Z,-0.38
2023-02-26T14:49:54.984Z,-0.39
2023-02-26T14:53:21.827Z,-0.38
2023-02-26T14:56:48.091Z,-0.36
2023-02-26T15:00:07.892Z,-0.36
2023-02-26T15:03:39.734Z,-0.36
2023-02-26T15:07:00.134Z,-0.38
2023-02-26T15:10:24.721Z,-0.41
2023-02-26T15:13:48.347Z,-0.46
2023-02-26T15:17:08.507Z,-0.49
2023-02-26T15:20:21.865Z,-0.53
2023-02-26T15:23:33.426Z,-0.59
2023-02-26T15:26:36.349Z,-0.62
2023-02-26T15:29:39.128Z,-0.65
2023-02-26T15:32:41.138Z,-0.69
2023-02-26T15:35:43.444Z,-0.70
2023-02-26T15:38:49.756Z,-0.72
2023-02-26T15:41:53.113Z,-0.75
2023-02-26T15:44:57.327Z,-0.78
2023-02-26T15:48:02.204Z,-0.82
2023-02-26T15:51:06.410Z,-0.90
2023-02-26T15:54:15.627Z,-0.96
2023-02-26T15:57:18.521Z,-1.04
2023-02-26T16:00:21.940Z,-1.11
2023-02-26T16:03:29.047Z,-1.15
2023-02-26T16:06:35.060Z,-1.21
2023-02-26T16:09:40.330Z,-1.25
2023-02-26T16:12:43.476Z,-1.31
2023-02-26T16:15:45.167Z,-1.37
2023-02-26T16:18:46.704Z,-1.39
2023-02-26T16:21:49.545Z,-1.42
2023-02-26T16:24:55.390Z,-1.42
2023-02-26T16:28:05.748Z,-1.44
2023-02-26T16:31:16.233Z,-1.44
2023-02-26T16:34:27.820Z,-1.45
2023-02-26T16:37:29.465Z,-1.46
2023-02-26T16:40:35.725Z,-1.36
2023-02-26T16:43:46.636Z,-1.41
2023-02-26T16:46:50.645Z,-1.50
2023-02-26T16:49:52.335Z,-1.56
2023-02-26T16:53:05.797Z,-1.59
2023-02-26T16:56:07.726Z,-1.61
2023-02-26T16:59:13.846Z,-1.60
2023-02-26T17:02:24.476Z,-1.61
2023-02-26T17:05:30.455Z,-1.58
2023-02-26T17:08:46.367Z,-1.53
2023-02-26T17:11:48.453Z,-1.49
2023-02-26T17:14:54.920Z,-1.49
2023-02-26T17:17:56.836Z,-1.48
2023-02-26T17:20:58.719Z,-1.46
2023-02-26T17:24:00.546Z,-1.49
2023-02-26T17:27:04.770Z,-1.48
2023-02-26T17:30:08.591Z,-1.49
2023-02-26T17:33:13.494Z,-1.51
2023-02-26T17:36:17.111Z,-1.51
2023-02-26T17:39:19.086Z,-1.50
2023-02-26T17:42:20.899Z,-1.54
2023-02-26T17:45:22.475Z,-1.52
2023-02-26T17:48:24.494Z,-1.51
2023-02-26T17:51:30.493Z,-1.54
2023-02-26T17:54:32.944Z,-1.57
2023-02-26T17:57:34.536Z,-1.63
2023-02-26T18:00:36.143Z,-1.66
2023-02-26T18:03:38.276Z,-1.64
2023-02-26T18:06:39.973Z,-1.63
2023-02-26T18:09:43.051Z,-1.64
2023-02-26T18:12:44.774Z,-1.65
2023-02-26T18:15:46.552Z,-1.65
2023-02-26T18:18:49.100Z,-1.64
2023-02-26T18:21:50.986Z,-1.64
2023-02-26T18:24:52.548Z,-1.62
2023-02-26T18:27:55.873Z,-1.60
2023-02-26T18:30:57.956Z,-1.59
2023-02-26T18:34:00.965Z,-1.61
2023-02-26T18:37:02.757Z,-1.62
2023-02-26T18:40:04.436Z,-1.62
2023-02-26T18:43:05.926Z,-1.64
2023-02-26T18:46:09.359Z,-1.65
2023-02-26T18:49:18.799Z,-1.66
2023-02-26T18:52:20.490Z,-1.70
2023-02-26T18:55:22.125Z,-1.73
2023-02-26T18:58:23.851Z,-1.73
2023-02-26T19:01:25.585Z,-1.73
2023-02-26T19:04:27.684Z,-1.74
2023-02-26T19:07:29.362Z,-1.77
2023-02-26T19:10:31.024Z,-1.75
2023-02-26T19:13:32.775Z,-1.75
2023-02-26T19:16:34.545Z,-1.78
2023-02-26T19:19:36.118Z,-1.67
2023-02-26T19:22:37.819Z,-1.66
2023-02-26T19:25:42.405Z,-1.71
2023-02-26T19:28:44.239Z,-1.75
2023-02-26T19:31:46.303Z,-1.76
2023-02-26T19:34:47.997Z,-1.82
2023-02-26T19:37:49.604Z,-1.90
2023-02-26T19:40:51.332Z,-1.90
2023-02-26T19:43:52.941Z,-1.85
2023-02-26T19:46:55.045Z,-1.84
2023-02-26T19:49:56.610Z,-1.85
2023-02-26T19:52:58.168Z,-1.86
2023-02-26T19:55:59.736Z,-1.89
2023-02-26T19:59:01.377Z,-1.87
2023-02-26T20:02:03.057Z,-1.88
2023-02-26T20:05:05.130Z,-1.90
2023-02-26T20:08:06.812Z,-1.94
2023-02-26T20:11:08.746Z,-1.95
2023-02-26T20:14:10.525Z,-1.92
2023-02-26T20:17:12.029Z,-1.94
2023-02-26T20:20:13.806Z,-1.96
2023-02-26T20:23:15.346Z,-1.96
2023-02-26T20:26:17.191Z,-1.96
2023-02-26T20:29:21.683Z,-1.96
2023-02-26T20:32:23.686Z,-1.90
2023-02-26T20:35:25.390Z,-1.90
2023-02-26T20:38:27.246Z,-1.94
2023-02-26T20:41:29.018Z,-1.99
2023-02-26T20:44:30.751Z,-2.02
2023-02-26T20:47:32.390Z,-2.03
2023-02-26T20:50:34.995Z,-2.06
2023-02-26T20:53:36.673Z,-2.04
2023-02-26T20:56:38.484Z,-2.07
2023-02-26T20:59:39.973Z,-2.07
2023-02-26T21:02:42.750Z,-2.04
2023-02-26T21:05:44.394Z,-2.03
2023-02-26T21:08:46.021Z,-2.01
2023-02-26T21:11:47.602Z,-2.05
2023-02-26T21:14:51.617Z,-2.08
2023-02-26T21:17:53.360Z,-2.10
2023-02-26T21:20:55.058Z,-2.06
2023-02-26T21:23:57.476Z,-1.90
2023-02-26T21:26:59.199Z,-1.97
2023-02-26T21:30:00.874Z,-2.05
2023-02-26T21:33:02.582Z,-2.08
2023-02-26T21:36:04.338Z,-2.00
2023-02-26T21:39:06.020Z,-1.92
2023-02-26T21:42:08.841Z,-1.86
2023-02-26T21:45:11.031Z,-1.81
2023-02-26T21:48:12.713Z,-1.77
2023-02-26T21:51:14.374Z,-1.72
2023-02-26T21:54:16.129Z,-1.69
2023-02-26T21:57:17.861Z,-1.66
2023-02-26T22:00:20.023Z,-1.64
2023-02-26T22:03:21.774Z,-1.64
2023-02-26T22:06:23.558Z,-1.62
2023-02-26T22:09:25.309Z,-1.62
2023-02-26T22:12:27.053Z,-1.63
2023-02-26T22:15:28.797Z,-1.65
2023-02-26T22:18:30.566Z,-1.65
2023-02-26T22:21:32.347Z,-1.62
2023-02-26T22:24:33.909Z,-1.62
2023-02-26T22:27:35.953Z,-1.63
2023-02-26T22:30:37.522Z,-1.63
2023-02-26T22:33:39.300Z,-1.63
2023-02-26T22:36:40.857Z,-1.64
2023-02-26T22:39:42.435Z,-1.65
2023-02-26T22:42:44.378Z,-1.66
2023-02-26T22:45:46.202Z,-1.68
2023-02-26T22:48:47.929Z,-1.68
2023-02-26T22:51:49.457Z,-1.68
2023-02-26T22:54:51.043Z,-1.67
2023-02-26T22:57:52.731Z,-1.67
2023-02-26T23:01:02.028Z,-1.66
2023-02-26T23:04:03.766Z,-1.66
2023-02-26T23:07:05.470Z,-1.66
2023-02-26T23:10:09.636Z,-1.65
2023-02-26T23:13:11.190Z,-1.67
2023-02-26T23:16:12.967Z,-1.68
2023-02-26T23:19:14.573Z,-1.70
2023-02-26T23:22:16.582Z,-1.71
2023-02-26T23:25:18.389Z,-1.74
2023-02-26T23:28:20.502Z,-1.75
2023-02-26T23:31:22.269Z,-1.76
2023-02-26T23:34:23.793Z,-1.78
2023-02-26T23:37:25.908Z,-1.79
2023-02-26T23:40:27.665Z,-1.80
2023-02-26T23:43:29.392Z,-1.81
2023-02-26T23:46:31.122Z,-1.82
2023-02-26T23:49:32.678Z,-1.85
2023-02-26T23:52:34.510Z,-1.87
2023-02-26T23:55:36.135Z,-1.89
2023-02-26T23:58:37.756Z,-1.90
